createdAt,value
2018-04-10T00:00:06.776Z,19.66
2018-04-10T00:01:06.779Z,19.88
2018-04-10T00:02:06.773Z,19.68
2018-04-10T00:03:06.735Z,19.65
2018-04-10T00:04:06.755Z,19.85
2018-04-10T00:05:06.721Z,19.67
2018-04-10T00:06:06.756Z,19.64
2018-04-10T00:07:07.126Z,19.86
2018-04-10T00:08:06.743Z,19.67
2018-04-10T00:09:06.726Z,19.64
2018-04-10T00:10:06.728Z,19.85
2018-04-10T00:11:06.971Z,19.66
2018-04-10T00:12:07.344Z,19.64
2018-04-10T00:13:06.755Z,19.84
2018-04-10T00:14:06.761Z,19.67
2018-04-10T00:15:06.890Z,19.63
2018-04-10T00:16:06.746Z,19.85
2018-04-10T00:17:06.801Z,19.66
2018-04-10T00:18:06.833Z,19.64
2018-04-10T00:19:06.840Z,19.84
2018-04-10T00:20:06.754Z,19.65
2018-04-10T00:21:06.751Z,19.63
2018-04-10T00:22:06.867Z,19.83
2018-04-10T00:23:06.777Z,19.65
2018-04-10T00:24:06.752Z,19.63
2018-04-10T00:25:06.746Z,19.83
2018-04-10T00:26:06.733Z,19.64
2018-04-10T00:27:06.808Z,19.63
2018-04-10T00:28:06.767Z,19.83
2018-04-10T00:29:06.725Z,19.64
2018-04-10T00:30:06.719Z,19.63
2018-04-10T00:31:06.772Z,19.82
2018-04-10T00:32:06.863Z,19.64
2018-04-10T00:33:06.724Z,19.63
2018-04-10T00:34:06.751Z,19.82
2018-04-10T00:35:06.736Z,19.65
2018-04-10T00:36:06.718Z,19.62
2018-04-10T00:37:06.761Z,19.82
2018-04-10T00:38:06.785Z,19.65
2018-04-10T00:39:06.722Z,19.62
2018-04-10T00:40:06.706Z,19.81
2018-04-10T00:41:06.754Z,19.64
2018-04-10T00:42:06.737Z,19.62
2018-04-10T00:43:06.784Z,19.81
2018-04-10T00:44:06.732Z,19.63
2018-04-10T00:45:06.754Z,19.61
2018-04-10T00:46:06.776Z,19.81
2018-04-10T00:47:06.889Z,19.63
2018-04-10T00:48:06.693Z,19.6
2018-04-10T00:49:06.707Z,19.81
2018-04-10T00:50:06.879Z,19.64
2018-04-10T00:51:06.736Z,19.6
2018-04-10T00:52:06.798Z,19.79
2018-04-10T00:53:06.741Z,19.63
2018-04-10T00:54:06.773Z,19.6
2018-04-10T00:55:06.766Z,19.8
2018-04-10T00:56:06.814Z,19.63
2018-04-10T00:57:06.737Z,19.6
2018-04-10T00:58:06.745Z,19.8
2018-04-10T00:59:06.744Z,19.62
2018-04-10T01:00:06.742Z,19.61
2018-04-10T01:01:06.781Z,19.81
2018-04-10T01:02:06.765Z,19.63
2018-04-10T01:03:06.759Z,19.6
2018-04-10T01:04:06.746Z,19.81
2018-04-10T01:05:06.555Z,19.63
2018-04-10T01:06:06.822Z,19.6
2018-04-10T01:07:06.768Z,19.8
2018-04-10T01:08:06.781Z,19.63
2018-04-10T01:09:06.860Z,19.57
2018-04-10T01:10:06.826Z,19.79
2018-04-10T01:11:06.792Z,19.63
2018-04-10T01:12:06.959Z,19.59
2018-04-10T01:13:06.867Z,19.79
2018-04-10T01:14:06.883Z,19.62
2018-04-10T01:15:06.719Z,19.59
2018-04-10T01:16:06.745Z,19.8
2018-04-10T01:17:06.837Z,19.62
2018-04-10T01:18:06.751Z,19.59
2018-04-10T01:19:06.711Z,19.79
2018-04-10T01:20:06.719Z,19.6
2018-04-10T01:21:06.756Z,19.58
2018-04-10T01:22:06.795Z,19.78
2018-04-10T01:23:06.775Z,19.61
2018-04-10T01:24:06.726Z,19.58
2018-04-10T01:25:06.733Z,19.78
2018-04-10T01:26:06.751Z,19.61
2018-04-10T01:27:06.748Z,19.57
2018-04-10T01:28:06.730Z,19.78
2018-04-10T01:29:06.758Z,19.6
2018-04-10T01:30:06.711Z,19.57
2018-04-10T01:31:06.763Z,19.78
2018-04-10T01:32:06.704Z,19.6
2018-04-10T01:33:06.755Z,19.57
2018-04-10T01:34:06.738Z,19.77
2018-04-10T01:35:06.856Z,19.6
2018-04-10T01:36:06.724Z,19.57
2018-04-10T01:37:06.747Z,19.79
2018-04-10T01:38:06.746Z,19.61
2018-04-10T01:39:06.724Z,19.57
2018-04-10T01:40:06.719Z,19.77
2018-04-10T01:41:06.736Z,19.6
2018-04-10T01:42:06.796Z,19.57
2018-04-10T01:43:06.723Z,19.77
2018-04-10T01:44:06.748Z,19.59
2018-04-10T01:45:06.791Z,19.57
2018-04-10T01:46:06.697Z,19.76
2018-04-10T01:47:06.721Z,19.59
2018-04-10T01:48:06.747Z,19.56
2018-04-10T01:49:06.788Z,19.76
2018-04-10T01:50:06.930Z,19.59
2018-04-10T01:51:06.796Z,19.57
2018-04-10T01:52:06.722Z,19.75
2018-04-10T01:53:06.696Z,19.57
2018-04-10T01:54:06.709Z,19.57
2018-04-10T01:55:06.702Z,19.76
2018-04-10T01:56:06.695Z,19.58
2018-04-10T01:57:06.727Z,19.56
2018-04-10T01:58:06.760Z,19.75
2018-04-10T01:59:06.740Z,19.59
2018-04-10T02:00:06.739Z,19.56
2018-04-10T02:01:06.684Z,19.75
2018-04-10T02:02:06.854Z,19.58
2018-04-10T02:03:06.704Z,19.56
2018-04-10T02:04:06.685Z,19.75
2018-04-10T02:05:06.706Z,19.58
2018-04-10T02:06:06.724Z,19.54
2018-04-10T02:07:06.737Z,19.75
2018-04-10T02:08:06.736Z,19.57
2018-04-10T02:09:06.701Z,19.55
2018-04-10T02:10:06.696Z,19.75
2018-04-10T02:11:06.745Z,19.57
2018-04-10T02:12:06.717Z,19.56
2018-04-10T02:13:06.687Z,19.75
2018-04-10T02:14:06.711Z,19.57
2018-04-10T02:15:06.687Z,19.54
2018-04-10T02:16:06.700Z,19.75
2018-04-10T02:17:06.695Z,19.56
2018-04-10T02:18:06.835Z,19.54
2018-04-10T02:19:06.682Z,19.74
2018-04-10T02:20:06.695Z,19.57
2018-04-10T02:21:06.744Z,19.54
2018-04-10T02:22:06.731Z,19.74
2018-04-10T02:23:06.711Z,19.57
2018-04-10T02:24:06.687Z,19.54
2018-04-10T02:25:07.117Z,19.74
2018-04-10T02:26:06.688Z,19.56
2018-04-10T02:27:06.725Z,19.54
2018-04-10T02:28:06.724Z,19.73
2018-04-10T02:29:06.710Z,19.56
2018-04-10T02:30:06.826Z,19.53
2018-04-10T02:31:06.685Z,19.72
2018-04-10T02:32:06.761Z,19.55
2018-04-10T02:33:06.743Z,19.53
2018-04-10T02:34:06.747Z,19.73
2018-04-10T02:35:06.743Z,19.56
2018-04-10T02:36:06.694Z,19.52
2018-04-10T02:37:06.955Z,19.73
2018-04-10T02:38:06.727Z,19.55
2018-04-10T02:39:06.710Z,19.52
2018-04-10T02:40:06.781Z,19.72
2018-04-10T02:41:06.689Z,19.55
2018-04-10T02:42:06.748Z,19.51
2018-04-10T02:43:06.715Z,19.72
2018-04-10T02:44:06.712Z,19.55
2018-04-10T02:45:06.754Z,19.51
2018-04-10T02:46:06.718Z,19.72
2018-04-10T02:47:06.703Z,19.53
2018-04-10T02:48:06.767Z,19.52
2018-04-10T02:49:06.694Z,19.71
2018-04-10T02:50:06.691Z,19.54
2018-04-10T02:51:06.739Z,19.52
2018-04-10T02:52:06.669Z,19.72
2018-04-10T02:53:06.690Z,19.54
2018-04-10T02:54:06.689Z,19.51
2018-04-10T02:55:06.693Z,19.7
2018-04-10T02:56:06.713Z,19.53
2018-04-10T02:57:06.694Z,19.51
2018-04-10T02:58:06.867Z,19.71
2018-04-10T02:59:06.712Z,19.53
2018-04-10T03:00:06.669Z,19.51
2018-04-10T03:01:06.706Z,19.7
2018-04-10T03:02:06.672Z,19.54
2018-04-10T03:03:06.714Z,19.51
2018-04-10T03:04:06.717Z,19.71
2018-04-10T03:05:06.699Z,19.54
2018-04-10T03:06:06.727Z,19.51
2018-04-10T03:07:06.670Z,19.71
2018-04-10T03:08:06.700Z,19.53
2018-04-10T03:09:06.665Z,19.5
2018-04-10T03:10:06.796Z,19.7
2018-04-10T03:11:06.775Z,19.53
2018-04-10T03:12:06.720Z,19.51
2018-04-10T03:13:06.685Z,19.71
2018-04-10T03:14:06.770Z,19.52
2018-04-10T03:15:06.679Z,19.5
2018-04-10T03:16:06.691Z,19.7
2018-04-10T03:17:06.663Z,19.52
2018-04-10T03:18:06.690Z,19.5
2018-04-10T03:19:06.713Z,19.7
2018-04-10T03:20:06.720Z,19.51
2018-04-10T03:21:06.699Z,19.5
2018-04-10T03:22:06.733Z,19.7
2018-04-10T03:23:06.662Z,19.52
2018-04-10T03:24:06.725Z,19.5
2018-04-10T03:25:06.676Z,19.69
2018-04-10T03:26:06.698Z,19.52
2018-04-10T03:27:06.690Z,19.49
2018-04-10T03:28:06.714Z,19.68
2018-04-10T03:29:06.880Z,19.51
2018-04-10T03:30:06.740Z,19.49
2018-04-10T03:31:06.680Z,19.69
2018-04-10T03:32:06.844Z,19.51
2018-04-10T03:33:06.683Z,19.5
2018-04-10T03:34:06.686Z,19.69
2018-04-10T03:35:06.689Z,19.51
2018-04-10T03:36:06.662Z,19.48
2018-04-10T03:37:06.685Z,19.68
2018-04-10T03:38:06.681Z,19.51
2018-04-10T03:39:06.682Z,19.49
2018-04-10T03:40:06.655Z,19.69
2018-04-10T03:41:06.689Z,19.51
2018-04-10T03:42:06.703Z,19.48
2018-04-10T03:43:06.838Z,19.68
2018-04-10T03:44:06.831Z,19.51
2018-04-10T03:45:06.697Z,19.49
2018-04-10T03:46:06.720Z,19.68
2018-04-10T03:47:06.709Z,19.5
2018-04-10T03:48:06.762Z,19.48
2018-04-10T03:49:06.725Z,19.69
2018-04-10T03:50:06.663Z,19.51
2018-04-10T03:51:06.656Z,19.47
2018-04-10T03:52:06.665Z,19.69
2018-04-10T03:53:06.650Z,19.52
2018-04-10T03:54:06.737Z,19.49
2018-04-10T03:55:06.673Z,19.69
2018-04-10T03:56:06.700Z,19.51
2018-04-10T03:57:06.728Z,19.5
2018-04-10T03:58:06.678Z,19.69
2018-04-10T03:59:06.804Z,19.54
2018-04-10T04:00:06.690Z,19.51
2018-04-10T04:01:06.733Z,19.73
2018-04-10T04:02:06.739Z,19.57
2018-04-10T04:03:06.697Z,19.54
2018-04-10T04:04:06.692Z,19.75
2018-04-10T04:05:06.658Z,19.59
2018-04-10T04:06:06.661Z,19.57
2018-04-10T04:07:06.682Z,19.78
2018-04-10T04:08:06.678Z,19.63
2018-04-10T04:09:06.687Z,19.62
2018-04-10T04:10:06.674Z,19.82
2018-04-10T04:11:06.660Z,19.67
2018-04-10T04:12:06.677Z,19.66
2018-04-10T04:13:06.701Z,19.88
2018-04-10T04:14:06.668Z,19.72
2018-04-10T04:15:06.699Z,19.72
2018-04-10T04:16:06.944Z,19.93
2018-04-10T04:17:06.666Z,19.78
2018-04-10T04:18:06.682Z,19.77
2018-04-10T04:19:06.973Z,19.96
2018-04-10T04:20:06.722Z,19.81
2018-04-10T04:21:06.675Z,19.8
2018-04-10T04:22:06.691Z,20
2018-04-10T04:23:06.704Z,19.86
2018-04-10T04:24:06.674Z,19.85
2018-04-10T04:25:06.905Z,20.05
2018-04-10T04:26:06.897Z,19.89
2018-04-10T04:27:06.666Z,19.88
2018-04-10T04:28:06.671Z,20.07
2018-04-10T04:29:06.716Z,19.92
2018-04-10T04:30:06.683Z,19.9
2018-04-10T04:31:06.844Z,20.11
2018-04-10T04:32:06.713Z,19.94
2018-04-10T04:33:06.670Z,19.94
2018-04-10T04:34:06.679Z,20.12
2018-04-10T04:35:06.804Z,19.99
2018-04-10T04:36:06.680Z,19.96
2018-04-10T04:37:06.800Z,20.17
2018-04-10T04:38:06.695Z,20
2018-04-10T04:39:06.688Z,19.99
2018-04-10T04:40:06.667Z,20.18
2018-04-10T04:41:06.651Z,20.02
2018-04-10T04:42:06.660Z,20
2018-04-10T04:43:06.805Z,20.2
2018-04-10T04:44:06.737Z,20.04
2018-04-10T04:45:06.656Z,20.02
2018-04-10T04:46:06.695Z,20.22
2018-04-10T04:47:06.721Z,20.06
2018-04-10T04:48:06.632Z,20.04
2018-04-10T04:49:06.757Z,20.24
2018-04-10T04:50:06.659Z,20.07
2018-04-10T04:51:06.704Z,20.04
2018-04-10T04:52:06.848Z,20.25
2018-04-10T04:53:06.718Z,20.08
2018-04-10T04:54:06.665Z,20.07
2018-04-10T04:55:06.653Z,20.24
2018-04-10T04:56:06.686Z,20.11
2018-04-10T04:57:06.669Z,20.07
2018-04-10T04:58:06.710Z,20.27
2018-04-10T04:59:06.650Z,20.1
2018-04-10T05:00:06.672Z,20.08
2018-04-10T05:01:06.685Z,20.28
2018-04-10T05:02:06.664Z,20.11
2018-04-10T05:03:06.650Z,20.09
2018-04-10T05:04:06.637Z,20.3
2018-04-10T05:05:06.661Z,20.12
2018-04-10T05:06:06.701Z,20.09
2018-04-10T05:07:06.751Z,20.29
2018-04-10T05:08:06.676Z,20.12
2018-04-10T05:09:06.675Z,20.09
2018-04-10T05:10:06.645Z,20.3
2018-04-10T05:11:06.743Z,20.12
2018-04-10T05:12:06.793Z,20.1
2018-04-10T05:13:06.718Z,20.3
2018-04-10T05:14:06.679Z,20.12
2018-04-10T05:15:06.654Z,20.1
2018-04-10T05:16:06.713Z,20.29
2018-04-10T05:17:06.737Z,20.12
2018-04-10T05:18:06.653Z,20.1
2018-04-10T05:19:06.657Z,20.3
2018-04-10T05:20:06.681Z,20.12
2018-04-10T05:21:06.635Z,20.1
2018-04-10T05:22:06.745Z,20.3
2018-04-10T05:23:06.631Z,20.13
2018-04-10T05:24:06.675Z,20.1
2018-04-10T05:25:06.649Z,20.3
2018-04-10T05:26:06.692Z,20.12
2018-04-10T05:27:06.795Z,20.09
2018-04-10T05:28:06.630Z,20.3
2018-04-10T05:29:06.639Z,20.12
2018-04-10T05:30:06.636Z,20.09
2018-04-10T05:31:06.649Z,20.3
2018-04-10T05:32:06.630Z,20.12
2018-04-10T05:33:06.637Z,20.1
2018-04-10T05:34:06.672Z,20.3
2018-04-10T05:35:06.679Z,20.12
2018-04-10T05:36:06.646Z,20.09
2018-04-10T05:37:06.687Z,20.3
2018-04-10T05:38:06.680Z,20.12
2018-04-10T05:39:06.740Z,20.09
2018-04-10T05:40:06.746Z,20.29
2018-04-10T05:41:06.659Z,20.12
2018-04-10T05:42:06.665Z,20.09
2018-04-10T05:43:06.668Z,20.29
2018-04-10T05:44:06.672Z,20.11
2018-04-10T05:45:06.616Z,20.09
2018-04-10T05:46:06.647Z,20.28
2018-04-10T05:47:06.901Z,20.11
2018-04-10T05:48:06.940Z,20.08
2018-04-10T05:49:06.747Z,20.27
2018-04-10T05:50:06.649Z,20.11
2018-04-10T05:51:06.609Z,20.08
2018-04-10T05:52:06.704Z,20.28
2018-04-10T05:53:06.909Z,20.12
2018-04-10T05:54:06.624Z,20.09
2018-04-10T05:55:06.703Z,20.29
2018-04-10T05:56:06.710Z,20.12
2018-04-10T05:57:06.720Z,20.08
2018-04-10T05:58:06.748Z,20.29
2018-04-10T05:59:07.187Z,20.12
2018-04-10T06:00:09.487Z,20.07
2018-04-10T06:01:06.712Z,20.27
2018-04-10T06:02:09.371Z,20.11
2018-04-10T06:03:09.137Z,20.07
2018-04-10T06:04:06.688Z,20.26
2018-04-10T06:05:07.167Z,20.1
2018-04-10T06:06:09.166Z,20.06
2018-04-10T06:07:06.723Z,20.26
2018-04-10T06:08:06.703Z,20.09
2018-04-10T06:09:09.107Z,20.07
2018-04-10T06:10:06.729Z,20.26
2018-04-10T06:11:06.690Z,20.08
2018-04-10T06:12:09.118Z,20.06
2018-04-10T06:13:06.624Z,20.26
2018-04-10T06:14:06.831Z,20.08
2018-04-10T06:15:06.664Z,20.06
2018-04-10T06:16:06.622Z,20.24
2018-04-10T06:17:06.633Z,20.08
2018-04-10T06:18:06.637Z,20.06
2018-04-10T06:19:06.628Z,20.24
2018-04-10T06:20:06.616Z,20.07
2018-04-10T06:21:06.663Z,20.04
2018-04-10T06:22:06.631Z,20.23
2018-04-10T06:23:06.640Z,20.06
2018-04-10T06:24:06.694Z,20.05
2018-04-10T06:25:06.615Z,20.24
2018-04-10T06:26:06.600Z,20.06
2018-04-10T06:27:06.652Z,20.03
2018-04-10T06:28:06.698Z,20.22
2018-04-10T06:29:06.723Z,20.06
2018-04-10T06:30:06.635Z,20.03
2018-04-10T06:31:06.592Z,20.23
2018-04-10T06:32:06.623Z,20.05
2018-04-10T06:33:06.629Z,20.02
2018-04-10T06:34:06.656Z,20.23
2018-04-10T06:35:06.625Z,20.06
2018-04-10T06:36:06.672Z,20.02
2018-04-10T06:37:06.868Z,20.21
2018-04-10T06:38:06.617Z,20.05
2018-04-10T06:39:06.638Z,20.01
2018-04-10T06:40:06.602Z,20.21
2018-04-10T06:41:06.712Z,20.03
2018-04-10T06:42:06.657Z,20.01
2018-04-10T06:43:06.739Z,20.04
2018-04-10T06:44:06.621Z,20
2018-04-10T06:45:06.907Z,20.02
2018-04-10T06:46:06.680Z,20.24
2018-04-10T06:47:06.639Z,20.07
2018-04-10T06:48:06.663Z,20.05
2018-04-10T06:49:06.640Z,20.26
2018-04-10T06:50:06.744Z,20.08
2018-04-10T06:51:06.627Z,20.06
2018-04-10T06:52:06.612Z,20.26
2018-04-10T06:53:06.641Z,20.1
2018-04-10T06:54:06.671Z,20.07
2018-04-10T06:55:06.664Z,20.29
2018-04-10T06:56:06.610Z,20.11
2018-04-10T06:57:06.621Z,20.08
2018-04-10T06:58:06.675Z,20.3
2018-04-10T06:59:06.674Z,20.12
2018-04-10T07:00:06.675Z,20.1
2018-04-10T07:01:06.681Z,20.31
2018-04-10T07:02:06.634Z,20.13
2018-04-10T07:03:06.609Z,20.1
2018-04-10T07:04:06.849Z,20.32
2018-04-10T07:05:06.609Z,20.14
2018-04-10T07:06:06.627Z,20.11
2018-04-10T07:07:06.657Z,20.32
2018-04-10T07:08:06.637Z,20.17
2018-04-10T07:09:06.625Z,20.12
2018-04-10T07:10:06.617Z,20.34
2018-04-10T07:11:06.601Z,20.18
2018-04-10T07:12:06.761Z,20.14
2018-04-10T07:13:06.745Z,20.36
2018-04-10T07:14:06.657Z,20.18
2018-04-10T07:15:06.599Z,20.15
2018-04-10T07:16:06.633Z,20.36
2018-04-10T07:17:06.599Z,20.18
2018-04-10T07:18:06.631Z,20.15
2018-04-10T07:19:06.638Z,20.36
2018-04-10T07:20:06.667Z,20.18
2018-04-10T07:21:06.594Z,20.14
2018-04-10T07:22:06.600Z,20.37
2018-04-10T07:23:06.603Z,20.2
2018-04-10T07:24:06.860Z,20.16
2018-04-10T07:25:06.593Z,20.36
2018-04-10T07:26:07.035Z,20.19
2018-04-10T07:27:06.619Z,20.18
2018-04-10T07:28:06.883Z,20.37
2018-04-10T07:29:06.850Z,20.19
2018-04-10T07:30:06.619Z,20.17
2018-04-10T07:31:06.616Z,20.37
2018-04-10T07:32:06.842Z,20.2
2018-04-10T07:33:06.615Z,20.16
2018-04-10T07:34:06.939Z,20.36
2018-04-10T07:35:06.879Z,20.18
2018-04-10T07:36:06.700Z,20.14
2018-04-10T07:37:06.627Z,20.21
2018-04-10T07:38:06.582Z,20.12
2018-04-10T07:39:06.624Z,20.14
2018-04-10T07:40:06.671Z,20.35
2018-04-10T07:41:06.633Z,20.17
2018-04-10T07:42:06.604Z,20.15
2018-04-10T07:43:06.648Z,20.37
2018-04-10T07:44:06.652Z,20.2
2018-04-10T07:45:06.745Z,20.15
2018-04-10T07:46:06.839Z,20.37
2018-04-10T07:47:06.653Z,20.18
2018-04-10T07:48:06.996Z,20.17
2018-04-10T07:49:06.636Z,20.38
2018-04-10T07:50:06.589Z,20.19
2018-04-10T07:51:06.659Z,20.16
2018-04-10T07:52:06.574Z,20.4
2018-04-10T07:53:06.571Z,20.42
2018-04-10T07:54:06.606Z,20.45
2018-04-10T07:55:06.548Z,20.45
2018-04-10T07:56:06.664Z,20.17
2018-04-10T07:57:06.630Z,20.13
2018-04-10T07:58:06.664Z,20.34
2018-04-10T07:59:06.587Z,20.18
2018-04-10T08:00:06.667Z,20.14
2018-04-10T08:01:06.640Z,20.35
2018-04-10T08:02:06.566Z,20.18
2018-04-10T08:03:06.625Z,20.14
2018-04-10T08:04:06.604Z,20.35
2018-04-10T08:05:06.730Z,20.18
2018-04-10T08:06:06.608Z,20.13
2018-04-10T08:07:06.587Z,20.35
2018-04-10T08:08:06.591Z,20.18
2018-04-10T08:09:06.598Z,20.15
2018-04-10T08:10:06.581Z,20.36
2018-04-10T08:11:06.630Z,20.18
2018-04-10T08:12:06.606Z,20.13
2018-04-10T08:13:06.610Z,20.34
2018-04-10T08:14:06.596Z,20.16
2018-04-10T08:15:06.583Z,20.12
2018-04-10T08:16:06.661Z,20.32
2018-04-10T08:17:06.580Z,20.15
2018-04-10T08:18:06.589Z,20.1
2018-04-10T08:19:06.611Z,20.32
2018-04-10T08:20:06.584Z,20.13
2018-04-10T08:21:06.722Z,20.09
2018-04-10T08:22:06.600Z,20.24
2018-04-10T08:23:06.562Z,20.12
2018-04-10T08:24:06.680Z,20.11
2018-04-10T08:25:06.566Z,20.34
2018-04-10T08:26:06.611Z,20.16
2018-04-10T08:27:06.594Z,20.11
2018-04-10T08:28:06.608Z,20.31
2018-04-10T08:29:06.564Z,20.15
2018-04-10T08:30:06.593Z,20.12
2018-04-10T08:31:06.603Z,20.34
2018-04-10T08:32:06.586Z,20.14
2018-04-10T08:33:06.629Z,20.12
2018-04-10T08:34:06.561Z,20.32
2018-04-10T08:35:06.659Z,20.15
2018-04-10T08:36:06.592Z,20.15
2018-04-10T08:37:06.564Z,20.34
2018-04-10T08:38:06.574Z,20.18
2018-04-10T08:39:06.770Z,20.15
2018-04-10T08:40:06.558Z,20.36
2018-04-10T08:41:06.581Z,20.18
2018-04-10T08:42:06.663Z,20.15
2018-04-10T08:43:06.558Z,20.36
2018-04-10T08:44:06.609Z,20.19
2018-04-10T08:45:06.987Z,20.36
2018-04-10T08:46:06.615Z,20.44
2018-04-10T08:47:06.605Z,20.18
2018-04-10T08:48:06.541Z,20.1
2018-04-10T08:49:06.621Z,20.3
2018-04-10T08:50:06.614Z,20.14
2018-04-10T08:51:06.635Z,20.12
2018-04-10T08:52:06.607Z,20.35
2018-04-10T08:53:06.602Z,20.17
2018-04-10T08:54:06.833Z,20.14
2018-04-10T08:55:06.584Z,20.35
2018-04-10T08:56:06.685Z,20.18
2018-04-10T08:57:06.589Z,20.13
2018-04-10T08:58:07.063Z,20.35
2018-04-10T08:59:06.729Z,20.17
2018-04-10T09:00:06.599Z,20.14
2018-04-10T09:01:06.557Z,20.34
2018-04-10T09:02:06.695Z,20.17
2018-04-10T09:03:06.603Z,20.15
2018-04-10T09:04:06.605Z,20.36
2018-04-10T09:05:06.596Z,20.2
2018-04-10T09:06:06.676Z,20.17
2018-04-10T09:07:06.601Z,20.37
2018-04-10T09:08:06.587Z,20.2
2018-04-10T09:09:06.726Z,20.15
2018-04-10T09:10:06.580Z,20.37
2018-04-10T09:11:06.605Z,20.21
2018-04-10T09:12:06.602Z,20.19
2018-04-10T09:13:06.687Z,20.39
2018-04-10T09:14:06.686Z,20.21
2018-04-10T09:15:06.549Z,20.19
2018-04-10T09:16:06.590Z,20.41
2018-04-10T09:17:06.591Z,20.24
2018-04-10T09:18:06.586Z,20.21
2018-04-10T09:19:06.627Z,20.35
2018-04-10T09:20:06.555Z,20.22
2018-04-10T09:21:06.545Z,20.19
2018-04-10T09:22:06.668Z,20.38
2018-04-10T09:23:06.573Z,20.2
2018-04-10T09:24:06.584Z,20.16
2018-04-10T09:25:06.627Z,20.37
2018-04-10T09:26:06.570Z,20.19
2018-04-10T09:27:06.590Z,20.15
2018-04-10T09:28:06.676Z,20.36
2018-04-10T09:29:06.831Z,20.18
2018-04-10T09:30:06.555Z,20.13
2018-04-10T09:31:06.578Z,20.34
2018-04-10T09:32:06.613Z,20.16
2018-04-10T09:33:06.703Z,20.14
2018-04-10T09:34:06.581Z,20.33
2018-04-10T09:35:06.548Z,20.15
2018-04-10T09:36:06.549Z,20.1
2018-04-10T09:37:06.698Z,20.31
2018-04-10T09:38:06.581Z,20.15
2018-04-10T09:39:06.568Z,20.11
2018-04-10T09:40:06.546Z,20.32
2018-04-10T09:41:06.544Z,20.13
2018-04-10T09:42:06.553Z,20.09
2018-04-10T09:43:06.612Z,20.3
2018-04-10T09:44:06.594Z,20.12
2018-04-10T09:45:06.561Z,20.07
2018-04-10T09:46:06.546Z,20.29
2018-04-10T09:47:06.567Z,20.1
2018-04-10T09:48:06.551Z,20.11
2018-04-10T09:49:06.553Z,20.3
2018-04-10T09:50:06.564Z,20.13
2018-04-10T09:51:06.612Z,20.09
2018-04-10T09:52:06.567Z,20.32
2018-04-10T09:53:06.623Z,20.12
2018-04-10T09:54:06.559Z,20.09
2018-04-10T09:55:06.611Z,20.3
2018-04-10T09:56:06.593Z,20.11
2018-04-10T09:57:06.632Z,20.07
2018-04-10T09:58:06.593Z,20.29
2018-04-10T09:59:06.672Z,20.1
2018-04-10T10:00:06.540Z,20.07
2018-04-10T10:01:06.627Z,20.29
2018-04-10T10:02:06.593Z,20.09
2018-04-10T10:03:06.588Z,20.06
2018-04-10T10:04:06.530Z,20.27
2018-04-10T10:05:06.584Z,20.08
2018-04-10T10:06:06.565Z,20.05
2018-04-10T10:07:06.521Z,20.27
2018-04-10T10:08:06.629Z,20.07
2018-04-10T10:09:06.598Z,20.05
2018-04-10T10:10:06.549Z,20.26
2018-04-10T10:11:06.669Z,20.06
2018-04-10T10:12:06.592Z,20.03
2018-04-10T10:13:06.592Z,20.25
2018-04-10T10:14:06.572Z,20.06
2018-04-10T10:15:06.549Z,19.92
2018-04-10T10:16:06.590Z,20.18
2018-04-10T10:17:06.617Z,20.05
2018-04-10T10:18:06.593Z,20.02
2018-04-10T10:19:06.575Z,20.24
2018-04-10T10:20:06.583Z,20.06
2018-04-10T10:21:06.547Z,20.03
2018-04-10T10:22:06.557Z,20.26
2018-04-10T10:23:06.578Z,20.08
2018-04-10T10:24:06.535Z,20.06
2018-04-10T10:25:06.581Z,20.28
2018-04-10T10:26:06.565Z,20.09
2018-04-10T10:27:06.603Z,20.07
2018-04-10T10:28:06.567Z,20.3
2018-04-10T10:29:06.548Z,20.11
2018-04-10T10:30:06.569Z,20.07
2018-04-10T10:31:06.597Z,20.29
2018-04-10T10:32:06.737Z,20.12
2018-04-10T10:33:06.553Z,20.08
2018-04-10T10:34:06.566Z,20.27
2018-04-10T10:35:06.520Z,20.12
2018-04-10T10:36:06.582Z,20.06
2018-04-10T10:37:06.514Z,20.29
2018-04-10T10:38:06.718Z,20.12
2018-04-10T10:39:06.756Z,20.08
2018-04-10T10:40:06.637Z,20.28
2018-04-10T10:41:06.554Z,20.13
2018-04-10T10:42:06.579Z,20.11
2018-04-10T10:43:06.763Z,20.32
2018-04-10T10:44:06.587Z,20.15
2018-04-10T10:45:06.576Z,20.12
2018-04-10T10:46:06.588Z,20.35
2018-04-10T10:47:06.777Z,20.16
2018-04-10T10:48:06.638Z,20.12
2018-04-10T10:49:06.536Z,20.35
2018-04-10T10:50:06.544Z,20.18
2018-04-10T10:51:06.543Z,20.13
2018-04-10T10:52:06.533Z,20.35
2018-04-10T10:53:06.549Z,20.18
2018-04-10T10:54:06.555Z,20.14
2018-04-10T10:55:06.636Z,20.35
2018-04-10T10:56:06.532Z,20.18
2018-04-10T10:57:06.513Z,20.17
2018-04-10T10:58:06.921Z,20.36
2018-04-10T10:59:06.549Z,20.2
2018-04-10T11:00:06.517Z,20.17
2018-04-10T11:01:06.840Z,20.35
2018-04-10T11:02:06.555Z,20.18
2018-04-10T11:03:06.720Z,20.16
2018-04-10T11:04:06.572Z,20.38
2018-04-10T11:05:06.569Z,20.2
2018-04-10T11:06:06.529Z,20.14
2018-04-10T11:07:06.551Z,20.36
2018-04-10T11:08:06.594Z,20.18
2018-04-10T11:09:06.545Z,20.15
2018-04-10T11:10:06.703Z,20.37
2018-04-10T11:11:06.640Z,20.18
2018-04-10T11:12:06.608Z,20.14
2018-04-10T11:13:06.675Z,20.35
2018-04-10T11:14:06.638Z,20.17
2018-04-10T11:15:06.632Z,20.13
2018-04-10T11:16:06.634Z,20.34
2018-04-10T11:17:06.531Z,20.15
2018-04-10T11:18:06.583Z,20.13
2018-04-10T11:19:06.529Z,20.34
2018-04-10T11:20:06.566Z,20.15
2018-04-10T11:21:06.540Z,20.12
2018-04-10T11:22:06.541Z,20.34
2018-04-10T11:23:06.538Z,20.13
2018-04-10T11:24:06.510Z,20.12
2018-04-10T11:25:06.533Z,20.31
2018-04-10T11:26:06.531Z,20.14
2018-04-10T11:27:06.534Z,20.11
2018-04-10T11:28:06.512Z,20.31
2018-04-10T11:29:06.492Z,20.14
2018-04-10T11:30:06.524Z,20.11
2018-04-10T11:31:06.504Z,20.32
2018-04-10T11:32:06.552Z,20.13
2018-04-10T11:33:06.562Z,20.1
2018-04-10T11:34:06.517Z,20.3
2018-04-10T11:35:06.560Z,20.12
2018-04-10T11:36:06.548Z,20.09
2018-04-10T11:37:06.487Z,20.29
2018-04-10T11:38:06.726Z,20.07
2018-04-10T11:39:06.726Z,20.03
2018-04-10T11:40:06.522Z,20.26
2018-04-10T11:41:06.502Z,20.09
2018-04-10T11:42:06.523Z,20.06
2018-04-10T11:43:06.843Z,20.3
2018-04-10T11:44:06.526Z,20.12
2018-04-10T11:45:06.565Z,20.07
2018-04-10T11:46:06.515Z,20.29
2018-04-10T11:47:06.551Z,20.12
2018-04-10T11:48:06.540Z,20.06
2018-04-10T11:49:06.532Z,20.3
2018-04-10T11:50:06.487Z,20.12
2018-04-10T11:51:06.516Z,20.1
2018-04-10T11:52:06.570Z,20.31
2018-04-10T11:53:06.544Z,20.15
2018-04-10T11:54:06.566Z,20.13
2018-04-10T11:55:06.514Z,20.12
2018-04-10T11:56:06.508Z,20.12
2018-04-10T11:57:06.547Z,20.12
2018-04-10T11:58:06.489Z,20.33
2018-04-10T11:59:06.531Z,20.14
2018-04-10T12:00:06.515Z,20.11
2018-04-10T12:01:06.594Z,20.32
2018-04-10T12:02:06.575Z,20.15
2018-04-10T12:03:06.541Z,20.11
2018-04-10T12:04:06.571Z,20.34
2018-04-10T12:05:06.546Z,20.16
2018-04-10T12:06:06.526Z,20.12
2018-04-10T12:07:06.530Z,20.33
2018-04-10T12:08:06.490Z,20.18
2018-04-10T12:09:06.502Z,20.15
2018-04-10T12:10:06.567Z,20.38
2018-04-10T12:11:06.508Z,20.18
2018-04-10T12:12:06.496Z,20.17
2018-04-10T12:13:06.515Z,20.38
2018-04-10T12:14:06.527Z,20.18
2018-04-10T12:15:06.698Z,20.17
2018-04-10T12:16:06.782Z,20.36
2018-04-10T12:17:06.507Z,20.21
2018-04-10T12:18:06.490Z,20.2
2018-04-10T12:19:06.517Z,20.31
2018-04-10T12:20:06.543Z,20.2
2018-04-10T12:21:06.548Z,20.17
2018-04-10T12:22:06.501Z,20.37
2018-04-10T12:23:06.524Z,20.19
2018-04-10T12:24:06.481Z,20.16
2018-04-10T12:25:06.530Z,20.37
2018-04-10T12:26:06.539Z,20.19
2018-04-10T12:27:06.535Z,20.15
2018-04-10T12:28:06.493Z,20.35
2018-04-10T12:29:06.604Z,20.17
2018-04-10T12:30:06.558Z,20.13
2018-04-10T12:31:06.499Z,20.35
2018-04-10T12:32:06.537Z,20.15
2018-04-10T12:33:06.489Z,20.12
2018-04-10T12:34:06.512Z,20.33
2018-04-10T12:35:06.511Z,20.14
2018-04-10T12:36:06.461Z,20.12
2018-04-10T12:37:06.511Z,20.33
2018-04-10T12:38:06.482Z,20.15
2018-04-10T12:39:06.512Z,20.11
2018-04-10T12:40:06.515Z,20.31
2018-04-10T12:41:06.493Z,20.13
2018-04-10T12:42:06.498Z,20.1
2018-04-10T12:43:06.867Z,20.3
2018-04-10T12:44:06.507Z,20.1
2018-04-10T12:45:06.622Z,20.06
2018-04-10T12:46:06.512Z,20.28
2018-04-10T12:47:06.615Z,20.13
2018-04-10T12:48:06.517Z,20.1
2018-04-10T12:49:06.525Z,20.31
2018-04-10T12:50:06.559Z,20.13
2018-04-10T12:51:06.527Z,20.1
2018-04-10T12:52:06.507Z,20.3
2018-04-10T12:53:06.508Z,20.06
2018-04-10T12:54:06.555Z,20.06
2018-04-10T12:55:06.560Z,20.3